Time;durP1;ratioP1;P1;durP2;ratioP2;P2;SDS_P1;SDS_P2;PMS_P1;PMS_P2;Temp;Humidity;BMP_temperature;BMP_pressure;BME280_temperature;BME280_humidity;BME280_pressure;Samples;Min_cycle;Max_cycle;Signal;HPM_P1;HPM_P2
2022/10/30 00:00:56;;;;;;;;;;;22.80;99.90;;;;;;4212932;28;19934;-67
2022/10/30 00:03:02;;;;;;;;;;;22.80;99.90;;;;;;4212784;28;20011;-66
2022/10/30 00:05:10;;;;;;;;;;;23.00;99.90;;;;;;4211262;28;19938;-67
2022/10/30 00:07:19;;;;;;;;;;;23.00;99.90;;;;;;4211702;28;19954;-66
2022/10/30 00:09:23;;;;;;;;;;;23.00;99.90;;;;;;4213240;28;19955;-66
2022/10/30 00:11:29;;;;;;;;;;;22.90;99.90;;;;;;4196880;28;19939;-67
2022/10/30 00:13:34;;;;;;;;;;;23.00;99.90;;;;;;4213389;28;19934;-66
2022/10/30 00:15:50;;;;;;;;;;;23.00;99.90;;;;;;4213554;28;19928;-68
2022/10/30 00:17:57;;;;;;;;;;;22.90;99.90;;;;;;4196368;28;19935;-67
2022/10/30 00:20:05;;;;;;;;;;;23.00;99.90;;;;;;4212293;28;19928;-67
2022/10/30 00:22:10;;;;;;;;;;;23.20;99.90;;;;;;4211237;28;20390;-68
2022/10/30 00:24:19;;;;;;;;;;;23.40;99.90;;;;;;4212402;28;19974;-67
2022/10/30 00:26:26;;;;;;;;;;;23.50;99.90;;;;;;4214168;28;19932;-68
2022/10/30 00:28:33;;;;;;;;;;;23.60;99.90;;;;;;4211527;28;20267;-68
2022/10/30 00:30:43;;;;;;;;;;;23.50;99.90;;;;;;4213303;28;19978;-67
2022/10/30 00:32:54;;;;;;;;;;;23.60;99.90;;;;;;4214378;28;20353;-67
2022/10/30 00:35:08;;;;;;;;;;;23.60;99.90;;;;;;4214001;28;19924;-67
2022/10/30 00:37:20;;;;;;;;;;;23.80;99.90;;;;;;4213304;28;19927;-67
2022/10/30 00:39:26;;;;;;;;;;;23.90;99.90;;;;;;4214987;28;19928;-67
2022/10/30 00:41:33;;;;;;;;;;;23.80;99.90;;;;;;4214419;28;20382;-67
2022/10/30 00:43:40;;;;;;;;;;;23.90;99.90;;;;;;4214475;28;19967;-66
2022/10/30 00:45:46;;;;;;;;;;;23.90;99.90;;;;;;4213609;28;19927;-67
2022/10/30 00:47:53;;;;;;;;;;;23.90;99.90;;;;;;4204133;28;20322;-68
2022/10/30 00:50:12;;;;;;;;;;;24.10;99.90;;;;;;4204352;28;19946;-67
2022/10/30 00:52:24;;;;;;;;;;;24.20;99.90;;;;;;4203207;28;19991;-67
2022/10/30 00:54:29;;;;;;;;;;;24.30;99.90;;;;;;4197997;28;20399;-67
2022/10/30 00:56:38;;;;;;;;;;;24.40;99.90;;;;;;4213418;28;19960;-67
2022/10/30 00:58:46;;;;;;;;;;;24.50;99.90;;;;;;4214121;28;19924;-67
2022/10/30 01:00:51;;;;;;;;;;;24.60;99.90;;;;;;4213091;28;20057;-67
2022/10/30 01:02:58;;;;;;;;;;;24.70;99.90;;;;;;4212696;28;20520;-67
2022/10/30 01:05:10;;;;;;;;;;;24.80;99.90;;;;;;4196571;28;20026;-67
2022/10/30 01:07:17;;;;;;;;;;;24.80;99.90;;;;;;4213923;28;20436;-67
2022/10/30 01:09:23;;;;;;;;;;;24.90;99.90;;;;;;4197048;28;20019;-67
2022/10/30 01:11:36;;;;;;;;;;;24.90;99.90;;;;;;4209381;28;19950;-67
2022/10/30 01:13:48;;;;;;;;;;;25.00;99.60;;;;;;4228305;28;20397;-67
2022/10/30 01:16:03;;;;;;;;;;;25.10;98.80;;;;;;4243458;27;19927;-67
2022/10/30 01:18:21;;;;;;;;;;;25.10;98.00;;;;;;4204446;28;20322;-67
2022/10/30 01:20:34;;;;;;;;;;;25.10;97.90;;;;;;4207067;28;19924;-67
2022/10/30 01:22:53;;;;;;;;;;;25.20;97.80;;;;;;4213918;28;19928;-67
2022/10/30 01:25:05;;;;;;;;;;;25.20;97.30;;;;;;4222160;28;20014;-67
2022/10/30 01:27:17;;;;;;;;;;;25.30;97.40;;;;;;4212204;28;20023;-68
2022/10/30 01:29:38;;;;;;;;;;;25.30;97.40;;;;;;4212610;28;19928;-68
2022/10/30 01:31:47;;;;;;;;;;;25.30;97.30;;;;;;4212345;28;19931;-67
2022/10/30 01:34:05;;;;;;;;;;;25.40;97.50;;;;;;4211684;28;19928;-67
2022/10/30 01:36:25;;;;;;;;;;;25.40;97.10;;;;;;4215575;28;19924;-67
2022/10/30 01:38:50;;;;;;;;;;;25.50;97.10;;;;;;4193436;28;19928;-67
2022/10/30 01:41:00;;;;;;;;;;;25.60;96.70;;;;;;4196736;28;19947;-69
2022/10/30 01:43:07;;;;;;;;;;;25.60;96.90;;;;;;4195525;28;19974;-68
2022/10/30 01:45:15;;;;;;;;;;;25.70;96.60;;;;;;4213746;28;19928;-70
2022/10/30 01:47:22;;;;;;;;;;;25.70;96.80;;;;;;4212519;28;19928;-67
2022/10/30 01:49:46;;;;;;;;;;;25.80;96.90;;;;;;4213102;28;19924;-68
2022/10/30 01:52:10;;;;;;;;;;;25.80;97.00;;;;;;4229596;28;19928;-67
2022/10/30 01:54:28;;;;;;;;;;;25.80;97.10;;;;;;4203085;28;20015;-67
2022/10/30 01:56:37;;;;;;;;;;;25.70;96.90;;;;;;4209574;28;19934;-67
2022/10/30 01:58:57;;;;;;;;;;;25.80;97.00;;;;;;4196090;28;20001;-67
2022/10/30 02:01:03;;;;;;;;;;;25.90;96.80;;;;;;4212191;28;19924;-67
2022/10/30 02:03:10;;;;;;;;;;;26.00;96.70;;;;;;4212157;28;20018;-68
2022/10/30 02:05:27;;;;;;;;;;;26.00;96.20;;;;;;4212564;28;20012;-67
2022/10/30 02:07:34;;;;;;;;;;;26.00;96.40;;;;;;4213559;28;19952;-67
2022/10/30 02:09:43;;;;;;;;;;;26.20;96.20;;;;;;4196518;28;20318;-67
2022/10/30 02:11:51;;;;;;;;;;;26.30;95.70;;;;;;4212490;28;20337;-68
2022/10/30 02:13:58;;;;;;;;;;;26.30;95.20;;;;;;4207719;28;19928;-67
2022/10/30 02:16:06;;;;;;;;;;;26.40;94.80;;;;;;4213180;28;19935;-67
2022/10/30 02:18:12;;;;;;;;;;;26.40;94.60;;;;;;4212593;28;19924;-67
2022/10/30 02:20:18;;;;;;;;;;;26.40;94.20;;;;;;4196440;28;19925;-72
2022/10/30 02:22:24;;;;;;;;;;;26.50;94.00;;;;;;4195218;28;20012;-68
2022/10/30 02:24:31;;;;;;;;;;;26.90;93.10;;;;;;4209846;28;20382;-69
2022/10/30 02:26:36;;;;;;;;;;;27.10;92.70;;;;;;4226357;28;19924;-67
2022/10/30 02:28:43;;;;;;;;;;;27.30;92.50;;;;;;4208651;28;19963;-67
2022/10/30 02:30:49;;;;;;;;;;;27.50;92.90;;;;;;4209940;28;19934;-69
2022/10/30 02:32:53;;;;;;;;;;;27.50;92.90;;;;;;4226358;28;19936;-68
2022/10/30 02:35:06;;;;;;;;;;;27.50;93.20;;;;;;4209939;28;20298;-68
2022/10/30 02:37:16;;;;;;;;;;;27.50;93.30;;;;;;4209625;28;19924;-68
2022/10/30 02:39:20;;;;;;;;;;;27.30;93.70;;;;;;4209653;28;20367;-68
2022/10/30 02:41:27;;;;;;;;;;;27.40;93.20;;;;;;4210366;28;19931;-68
2022/10/30 02:43:34;;;;;;;;;;;27.50;93.90;;;;;;4209380;28;19963;-68
2022/10/30 02:45:41;;;;;;;;;;;27.60;93.70;;;;;;4209801;28;19928;-67
2022/10/30 02:47:45;;;;;;;;;;;27.50;93.10;;;;;;4208283;28;20728;-67
2022/10/30 02:49:52;;;;;;;;;;;27.30;93.20;;;;;;4209462;28;20011;-68
2022/10/30 02:51:57;;;;;;;;;;;27.30;93.00;;;;;;4239614;28;19927;-67
2022/10/30 02:54:05;;;;;;;;;;;27.20;93.50;;;;;;4226476;28;19977;-67
2022/10/30 02:56:13;;;;;;;;;;;27.40;93.10;;;;;;4214685;28;19924;-68
2022/10/30 02:58:30;;;;;;;;;;;27.40;92.90;;;;;;4198442;28;19928;-67
2022/10/30 03:00:34;;;;;;;;;;;27.60;92.90;;;;;;4213381;28;19934;-68
2022/10/30 03:02:47;;;;;;;;;;;27.70;92.30;;;;;;4213458;28;19935;-68
2022/10/30 03:04:51;;;;;;;;;;;27.60;92.40;;;;;;4213890;28;19928;-68
2022/10/30 03:06:58;;;;;;;;;;;27.60;92.10;;;;;;4196117;28;19928;-67
2022/10/30 03:09:05;;;;;;;;;;;27.60;92.50;;;;;;4229447;28;19923;-68
2022/10/30 03:11:10;;;;;;;;;;;27.60;92.40;;;;;;4212044;28;19932;-68
2022/10/30 03:13:15;;;;;;;;;;;27.70;92.10;;;;;;4214581;28;19928;-68
2022/10/30 03:15:26;;;;;;;;;;;27.70;91.90;;;;;;4207623;28;19924;-68
2022/10/30 03:17:31;;;;;;;;;;;27.70;91.70;;;;;;4212075;28;19963;-68
2022/10/30 03:19:35;;;;;;;;;;;27.60;92.10;;;;;;4212189;28;19924;-68
2022/10/30 03:21:43;;;;;;;;;;;27.80;92.20;;;;;;4213814;28;20468;-68
2022/10/30 03:23:50;;;;;;;;;;;27.90;91.30;;;;;;4212207;28;20436;-68
2022/10/30 03:25:55;;;;;;;;;;;27.90;91.50;;;;;;4213259;28;19954;-69
2022/10/30 03:27:59;;;;;;;;;;;27.80;91.40;;;;;;4212310;28;19960;-68
2022/10/30 03:30:08;;;;;;;;;;;28.00;91.40;;;;;;4228984;28;20331;-68
2022/10/30 03:32:15;;;;;;;;;;;28.10;91.40;;;;;;4213843;28;20002;-68
2022/10/30 03:34:26;;;;;;;;;;;28.10;91.20;;;;;;4230948;28;20010;-68
2022/10/30 03:36:35;;;;;;;;;;;28.10;91.30;;;;;;4229423;28;19924;-69
2022/10/30 03:38:39;;;;;;;;;;;28.10;90.90;;;;;;4212141;28;20015;-69
2022/10/30 03:40:45;;;;;;;;;;;28.10;91.20;;;;;;4212977;28;20011;-69
2022/10/30 03:42:49;;;;;;;;;;;28.30;91.70;;;;;;4214011;28;19939;-68
2022/10/30 03:44:56;;;;;;;;;;;28.40;91.50;;;;;;4212481;28;19935;-68
2022/10/30 03:47:05;;;;;;;;;;;28.40;90.90;;;;;;4242636;27;20436;-69
2022/10/30 03:49:18;;;;;;;;;;;28.30;90.70;;;;;;4195714;28;19931;-68
2022/10/30 03:51:25;;;;;;;;;;;28.30;90.80;;;;;;4209795;28;19966;-68
2022/10/30 03:53:31;;;;;;;;;;;28.40;90.80;;;;;;4212139;28;19934;-69
2022/10/30 03:55:36;;;;;;;;;;;28.40;90.90;;;;;;4227237;28;19928;-68
2022/10/30 03:57:40;;;;;;;;;;;28.50;90.20;;;;;;4228492;28;19928;-68
2022/10/30 03:59:49;;;;;;;;;;;28.40;90.30;;;;;;4211362;28;19928;-69
2022/10/30 04:02:13;;;;;;;;;;;28.40;90.20;;;;;;4213480;28;20344;-70
2022/10/30 04:04:18;;;;;;;;;;;28.40;90.20;;;;;;4211987;28;19976;-67
2022/10/30 04:06:22;;;;;;;;;;;28.30;90.10;;;;;;4215846;28;19931;-70
2022/10/30 04:08:27;;;;;;;;;;;28.40;90.40;;;;;;4212486;28;19932;-68
2022/10/30 04:10:32;;;;;;;;;;;28.60;90.50;;;;;;4218332;28;19928;-68
2022/10/30 04:12:41;;;;;;;;;;;28.50;89.30;;;;;;4211866;28;19924;-68
2022/10/30 04:14:45;;;;;;;;;;;28.60;89.00;;;;;;4210448;28;20001;-69
2022/10/30 04:16:49;;;;;;;;;;;28.70;88.80;;;;;;4212511;28;20619;-68
2022/10/30 04:18:53;;;;;;;;;;;28.70;88.70;;;;;;4212187;28;19935;-68
2022/10/30 04:20:59;;;;;;;;;;;28.80;88.50;;;;;;4213149;28;19924;-68
2022/10/30 04:23:06;;;;;;;;;;;28.80;88.30;;;;;;4211643;28;19927;-68
2022/10/30 04:25:10;;;;;;;;;;;28.90;87.90;;;;;;4195348;28;20306;-68
2022/10/30 04:27:14;;;;;;;;;;;29.10;87.30;;;;;;4211533;28;19970;-69
2022/10/30 04:29:20;;;;;;;;;;;29.10;86.70;;;;;;4211233;28;19924;-69
2022/10/30 04:31:26;;;;;;;;;;;29.20;87.60;;;;;;4228006;28;20006;-69
2022/10/30 04:33:31;;;;;;;;;;;29.30;85.60;;;;;;4217030;27;19931;-70
2022/10/30 04:35:37;;;;;;;;;;;29.10;85.70;;;;;;4227579;28;19970;-69
2022/10/30 04:37:56;;;;;;;;;;;29.20;85.70;;;;;;4228265;28;19928;-69
2022/10/30 04:40:04;;;;;;;;;;;29.00;85.90;;;;;;4212013;28;19935;-69
2022/10/30 04:42:22;;;;;;;;;;;29.10;86.10;;;;;;4213704;28;19931;-69
2022/10/30 04:44:28;;;;;;;;;;;29.20;85.70;;;;;;4215469;28;19936;-70
2022/10/30 04:46:32;;;;;;;;;;;29.30;85.10;;;;;;4211986;28;20023;-69
2022/10/30 04:48:43;;;;;;;;;;;29.40;85.90;;;;;;4196475;28;20353;-69
2022/10/30 04:50:49;;;;;;;;;;;29.60;85.70;;;;;;4228172;27;19931;-69
2022/10/30 04:53:03;;;;;;;;;;;29.60;85.40;;;;;;4198125;28;20015;-69
2022/10/30 04:55:08;;;;;;;;;;;29.50;83.40;;;;;;4243575;27;19937;-69
2022/10/30 04:57:14;;;;;;;;;;;29.50;82.30;;;;;;4211126;28;20693;-69
2022/10/30 04:59:19;;;;;;;;;;;29.60;82.70;;;;;;4209559;28;19938;-69
2022/10/30 05:01:28;;;;;;;;;;;29.70;84.30;;;;;;4209808;28;19971;-69
2022/10/30 05:03:34;;;;;;;;;;;29.70;84.40;;;;;;4177936;28;20142;-69
2022/10/30 05:05:44;;;;;;;;;;;29.70;84.60;;;;;;4194366;28;19939;-69
2022/10/30 05:07:49;;;;;;;;;;;29.60;83.10;;;;;;4194290;28;19963;-70
2022/10/30 05:09:56;;;;;;;;;;;29.60;83.10;;;;;;4194030;28;19932;-69
2022/10/30 05:12:01;;;;;;;;;;;29.60;83.10;;;;;;4194578;28;19983;-69
2022/10/30 05:14:13;;;;;;;;;;;29.50;83.70;;;;;;4193790;28;20403;-69
2022/10/30 05:16:20;;;;;;;;;;;29.60;84.10;;;;;;4194049;28;19925;-70
2022/10/30 05:18:26;;;;;;;;;;;29.60;83.70;;;;;;4192652;28;20050;-69
2022/10/30 05:20:31;;;;;;;;;;;29.70;84.00;;;;;;4194957;28;20748;-69
2022/10/30 05:22:37;;;;;;;;;;;29.80;83.10;;;;;;4194749;28;20011;-69
2022/10/30 05:24:41;;;;;;;;;;;29.80;82.00;;;;;;4212471;28;20378;-69
2022/10/30 05:26:48;;;;;;;;;;;29.80;82.00;;;;;;4210481;28;19924;-69
2022/10/30 05:28:52;;;;;;;;;;;29.80;81.80;;;;;;4225744;28;19924;-69
2022/10/30 05:30:56;;;;;;;;;;;29.90;81.70;;;;;;4244764;27;19929;-69
2022/10/30 05:33:21;;;;;;;;;;;29.90;82.00;;;;;;4212086;28;20294;-70
2022/10/30 05:35:25;;;;;;;;;;;30.00;82.10;;;;;;4210402;28;19928;-69
2022/10/30 05:37:30;;;;;;;;;;;30.00;81.70;;;;;;4210875;28;19977;-69
2022/10/30 05:39:34;;;;;;;;;;;30.00;81.70;;;;;;4209626;28;20078;-69
2022/10/30 05:41:42;;;;;;;;;;;30.00;82.20;;;;;;4210018;28;20037;-69
2022/10/30 05:43:46;;;;;;;;;;;30.20;82.70;;;;;;4193633;28;19935;-69
2022/10/30 05:45:52;;;;;;;;;;;30.20;80.60;;;;;;4210135;28;19978;-69
2022/10/30 05:48:00;;;;;;;;;;;30.20;80.60;;;;;;4210220;28;19928;-69
2022/10/30 05:50:08;;;;;;;;;;;30.20;80.10;;;;;;4209712;28;20682;-68
2022/10/30 05:52:28;;;;;;;;;;;30.30;80.50;;;;;;4196536;28;19928;-68
2022/10/30 05:54:36;;;;;;;;;;;30.30;80.00;;;;;;4193927;28;19940;-69
2022/10/30 05:56:49;;;;;;;;;;;30.40;80.70;;;;;;4198936;28;19986;-68
2022/10/30 05:58:54;;;;;;;;;;;30.40;80.70;;;;;;4200937;28;20000;-68
2022/10/30 06:01:00;;;;;;;;;;;30.40;81.30;;;;;;4196963;28;19928;-68
2022/10/30 06:03:14;;;;;;;;;;;30.40;80.40;;;;;;4183091;28;19971;-69
2022/10/30 06:05:18;;;;;;;;;;;30.40;80.40;;;;;;4210008;28;19928;-68
2022/10/30 06:07:21;;;;;;;;;;;30.40;81.00;;;;;;4201268;28;19928;-68
2022/10/30 06:09:26;;;;;;;;;;;30.60;80.60;;;;;;4197570;28;20333;-68
2022/10/30 06:11:44;;;;;;;;;;;30.60;81.10;;;;;;4211124;28;19934;-68
2022/10/30 06:13:50;;;;;;;;;;;30.50;80.60;;;;;;4210689;28;20056;-68
2022/10/30 06:16:00;;;;;;;;;;;30.60;80.80;;;;;;4211584;28;19924;-68
2022/10/30 06:18:19;;;;;;;;;;;30.50;80.50;;;;;;4220496;28;19928;-69
2022/10/30 06:20:29;;;;;;;;;;;30.60;81.10;;;;;;4209791;28;19935;-68
2022/10/30 06:22:52;;;;;;;;;;;30.50;80.10;;;;;;4212053;28;19928;-68
2022/10/30 06:25:01;;;;;;;;;;;30.60;80.90;;;;;;4225975;28;19931;-70
2022/10/30 06:27:18;;;;;;;;;;;30.70;81.60;;;;;;4211380;28;19928;-68
2022/10/30 06:29:22;;;;;;;;;;;30.70;81.00;;;;;;4210711;28;20574;-69
2022/10/30 06:31:26;;;;;;;;;;;30.70;79.80;;;;;;4205405;28;19928;-68
2022/10/30 06:33:34;;;;;;;;;;;30.60;79.60;;;;;;4203890;28;19924;-68
2022/10/30 06:35:38;;;;;;;;;;;30.50;80.40;;;;;;4198403;28;19928;-68
2022/10/30 06:37:46;;;;;;;;;;;30.60;80.50;;;;;;4227952;27;19927;-68
2022/10/30 06:39:52;;;;;;;;;;;30.50;80.40;;;;;;4225969;27;19966;-68
2022/10/30 06:42:17;;;;;;;;;;;30.40;80.90;;;;;;4198058;28;20573;-69
2022/10/30 06:44:35;;;;;;;;;;;30.50;80.50;;;;;;4208639;28;19928;-69
2022/10/30 06:46:39;;;;;;;;;;;30.40;80.50;;;;;;4212330;28;19928;-69
2022/10/30 06:48:44;;;;;;;;;;;30.50;81.20;;;;;;4210702;28;20401;-69
2022/10/30 06:50:58;;;;;;;;;;;30.60;81.30;;;;;;4210666;28;19959;-69
2022/10/30 06:53:06;;;;;;;;;;;30.60;81.10;;;;;;4212492;28;19990;-69
2022/10/30 06:55:12;;;;;;;;;;;30.70;80.90;;;;;;4213281;28;20062;-69
2022/10/30 06:57:33;;;;;;;;;;;30.80;80.40;;;;;;4212398;28;19924;-69
2022/10/30 06:59:53;;;;;;;;;;;30.80;80.60;;;;;;4201440;28;20302;-69
2022/10/30 07:02:09;;;;;;;;;;;30.90;80.70;;;;;;4200005;28;19935;-70
2022/10/30 07:04:22;;;;;;;;;;;30.90;81.00;;;;;;4246514;27;19927;-69
2022/10/30 07:06:31;;;;;;;;;;;30.90;80.50;;;;;;4212730;28;19924;-70
2022/10/30 07:08:36;;;;;;;;;;;30.90;80.90;;;;;;4196028;28;19936;-69
2022/10/30 07:10:43;;;;;;;;;;;30.80;81.00;;;;;;4202222;28;20417;-68
2022/10/30 07:13:09;;;;;;;;;;;30.80;81.60;;;;;;4225594;28;19934;-69
2022/10/30 07:15:20;;;;;;;;;;;30.90;81.60;;;;;;4229991;28;19955;-68
2022/10/30 07:17:37;;;;;;;;;;;31.00;80.50;;;;;;4214522;28;19935;-69
2022/10/30 07:19:49;;;;;;;;;;;31.10;80.80;;;;;;4229090;28;19963;-70
2022/10/30 07:21:55;;;;;;;;;;;31.00;80.80;;;;;;4231135;28;19939;-69
2022/10/30 07:24:01;;;;;;;;;;;31.00;79.90;;;;;;4217122;28;19994;-69
2022/10/30 07:26:10;;;;;;;;;;;30.80;80.40;;;;;;4212130;28;19981;-70
2022/10/30 07:28:20;;;;;;;;;;;30.80;80.70;;;;;;4212193;28;20018;-70
2022/10/30 07:30:38;;;;;;;;;;;30.80;80.80;;;;;;4213315;28;20287;-70
2022/10/30 07:32:57;;;;;;;;;;;30.70;80.90;;;;;;4212824;28;20045;-70
2022/10/30 07:35:21;;;;;;;;;;;30.70;81.30;;;;;;4208346;28;20543;-70
2022/10/30 07:37:25;;;;;;;;;;;30.70;81.40;;;;;;4203390;28;19986;-70
2022/10/30 07:39:39;;;;;;;;;;;30.70;81.40;;;;;;4196148;28;20022;-69
2022/10/30 07:42:05;;;;;;;;;;;30.60;81.70;;;;;;4227276;28;19970;-70
2022/10/30 07:44:22;;;;;;;;;;;30.50;82.40;;;;;;4213330;28;19928;-69
2022/10/30 07:46:39;;;;;;;;;;;30.40;82.30;;;;;;4212776;28;20398;-69
2022/10/30 07:48:55;;;;;;;;;;;30.30;82.50;;;;;;4227926;28;19927;-70
2022/10/30 07:51:16;;;;;;;;;;;30.30;83.00;;;;;;4214034;28;19935;-70
2022/10/30 07:53:22;;;;;;;;;;;30.50;83.30;;;;;;4200995;28;19924;-68
2022/10/30 07:55:26;;;;;;;;;;;30.50;83.30;;;;;;4210526;28;19970;-69
2022/10/30 07:57:44;;;;;;;;;;;30.50;84.10;;;;;;4210954;28;19924;-69
2022/10/30 08:00:10;;;;;;;;;;;30.60;84.30;;;;;;4197957;28;19960;-69
2022/10/30 08:02:28;;;;;;;;;;;30.60;84.50;;;;;;4188389;28;19933;-69
2022/10/30 08:04:47;;;;;;;;;;;30.60;84.10;;;;;;4212955;28;19935;-69
2022/10/30 08:07:09;;;;;;;;;;;30.50;84.20;;;;;;4195310;28;20432;-69
2022/10/30 08:09:14;;;;;;;;;;;30.50;83.80;;;;;;4228005;28;19923;-68
2022/10/30 08:11:21;;;;;;;;;;;30.40;83.70;;;;;;4214845;28;19959;-69
2022/10/30 08:13:30;;;;;;;;;;;30.40;84.20;;;;;;4211505;28;19928;-69
2022/10/30 08:15:34;;;;;;;;;;;30.40;84.40;;;;;;4228570;27;19927;-70
2022/10/30 08:17:41;;;;;;;;;;;30.50;84.80;;;;;;4212345;28;20336;-68
2022/10/30 08:19:46;;;;;;;;;;;30.60;84.00;;;;;;4212696;28;19924;-68
2022/10/30 08:21:55;;;;;;;;;;;30.60;84.20;;;;;;4211669;28;19932;-69
2022/10/30 08:24:05;;;;;;;;;;;30.60;83.40;;;;;;4211118;28;19964;-68
2022/10/30 08:26:10;;;;;;;;;;;30.50;82.80;;;;;;4207577;28;21864;-70
2022/10/30 08:28:14;;;;;;;;;;;30.50;82.70;;;;;;4205277;28;19947;-68
2022/10/30 08:30:20;;;;;;;;;;;30.50;82.60;;;;;;4194890;28;19932;-68
2022/10/30 08:32:30;;;;;;;;;;;30.50;82.80;;;;;;4211836;28;19928;-69
2022/10/30 08:34:55;;;;;;;;;;;30.50;83.60;;;;;;4198382;28;19944;-68
2022/10/30 08:37:00;;;;;;;;;;;30.60;84.10;;;;;;4211520;28;20414;-68
2022/10/30 08:39:04;;;;;;;;;;;30.70;84.30;;;;;;4194871;28;20554;-69
2022/10/30 08:41:16;;;;;;;;;;;30.70;84.60;;;;;;4228199;28;19939;-69
2022/10/30 08:43:27;;;;;;;;;;;30.70;84.50;;;;;;4193624;28;20023;-69
2022/10/30 08:45:36;;;;;;;;;;;30.70;84.90;;;;;;4232852;27;19942;-70
2022/10/30 08:47:55;;;;;;;;;;;30.70;84.30;;;;;;4212829;28;20054;-69
2022/10/30 08:50:02;;;;;;;;;;;30.60;83.50;;;;;;4211594;28;19924;-69
2022/10/30 08:52:11;;;;;;;;;;;30.60;83.90;;;;;;4227987;27;20356;-69
2022/10/30 08:54:14;;;;;;;;;;;30.60;84.00;;;;;;4210390;28;20362;-69
2022/10/30 08:56:23;;;;;;;;;;;30.60;84.30;;;;;;4244059;27;20405;-69
2022/10/30 08:58:36;;;;;;;;;;;30.50;84.20;;;;;;4210534;28;19985;-70
2022/10/30 09:00:43;;;;;;;;;;;30.40;84.40;;;;;;4211701;28;19966;-69
2022/10/30 09:02:49;;;;;;;;;;;30.40;84.50;;;;;;4212764;28;19928;-69
2022/10/30 09:05:16;;;;;;;;;;;30.50;84.70;;;;;;4211869;28;19928;-69
2022/10/30 09:07:32;;;;;;;;;;;30.50;84.60;;;;;;4216414;28;19924;-69
2022/10/30 09:09:54;;;;;;;;;;;30.40;84.40;;;;;;4213114;28;19951;-71
2022/10/30 09:12:02;;;;;;;;;;;30.30;84.50;;;;;;4194491;28;19975;-72
2022/10/30 09:14:12;;;;;;;;;;;30.20;85.00;;;;;;4194608;28;19935;-71
2022/10/30 09:16:17;;;;;;;;;;;30.10;84.60;;;;;;4177843;28;20027;-71
2022/10/30 09:18:23;;;;;;;;;;;30.00;84.90;;;;;;4194987;28;19924;-71
2022/10/30 09:20:28;;;;;;;;;;;30.00;85.10;;;;;;4195240;28;19974;-72
2022/10/30 09:22:38;;;;;;;;;;;30.00;85.50;;;;;;4210607;28;19936;-72
2022/10/30 09:24:47;;;;;;;;;;;29.90;85.90;;;;;;4194595;28;20058;-73
2022/10/30 09:27:05;;;;;;;;;;;29.90;86.40;;;;;;4240908;27;19941;-70
2022/10/30 09:29:21;;;;;;;;;;;29.90;86.60;;;;;;4242060;27;19923;-72
2022/10/30 09:31:40;;;;;;;;;;;29.80;86.90;;;;;;4230193;27;20718;-70
2022/10/30 09:33:49;;;;;;;;;;;29.80;87.30;;;;;;4210710;28;19946;-72
2022/10/30 09:36:12;;;;;;;;;;;29.80;87.40;;;;;;4210925;28;20363;-71
2022/10/30 09:38:23;;;;;;;;;;;29.70;87.20;;;;;;4211068;28;19928;-71
2022/10/30 09:40:40;;;;;;;;;;;29.70;87.40;;;;;;4211737;28;19928;-70
2022/10/30 09:42:47;;;;;;;;;;;29.70;87.60;;;;;;4211324;28;19928;-70
2022/10/30 09:45:05;;;;;;;;;;;29.60;87.60;;;;;;4224839;28;19928;-71
2022/10/30 09:47:44;;;;;;;;;;;29.60;88.10;;;;;;4228776;28;19946;-71
2022/10/30 09:49:53;;;;;;;;;;;29.50;88.00;;;;;;4228595;28;20057;-71
2022/10/30 09:52:11;;;;;;;;;;;29.50;88.00;;;;;;4222417;28;20275;-72
2022/10/30 09:54:29;;;;;;;;;;;29.50;88.10;;;;;;4235395;27;19927;-71
2022/10/30 09:56:35;;;;;;;;;;;29.50;88.60;;;;;;4210396;28;20013;-74
2022/10/30 09:58:51;;;;;;;;;;;29.50;88.60;;;;;;4218966;28;19925;-74
2022/10/30 10:01:05;;;;;;;;;;;29.40;88.70;;;;;;4210767;28;20618;-72
2022/10/30 10:03:21;;;;;;;;;;;29.40;89.30;;;;;;4210652;28;19928;-73
2022/10/30 10:05:47;;;;;;;;;;;29.30;88.80;;;;;;4214906;28;19928;-73
2022/10/30 10:08:06;;;;;;;;;;;29.30;88.80;;;;;;4212213;28;19928;-73
2022/10/30 10:10:22;;;;;;;;;;;29.30;88.90;;;;;;4200473;28;19928;-74
2022/10/30 10:12:38;;;;;;;;;;;29.20;88.70;;;;;;4214232;28;19962;-72
2022/10/30 10:14:43;;;;;;;;;;;29.20;89.20;;;;;;4212683;28;19981;-75
2022/10/30 10:16:51;;;;;;;;;;;29.10;89.20;;;;;;4214484;28;19932;-74
2022/10/30 10:18:58;;;;;;;;;;;29.10;89.30;;;;;;4214146;28;19928;-74
2022/10/30 10:21:05;;;;;;;;;;;29.10;89.50;;;;;;4215469;28;19924;-73
2022/10/30 10:23:29;;;;;;;;;;;29.00;89.60;;;;;;4196531;28;19928;-73
2022/10/30 10:25:35;;;;;;;;;;;29.00;89.70;;;;;;4213159;28;20011;-73
2022/10/30 10:27:58;;;;;;;;;;;29.00;90.00;;;;;;4213021;28;19928;-75
2022/10/30 10:30:07;;;;;;;;;;;28.90;90.30;;;;;;4212986;28;19950;-73
2022/10/30 10:32:21;;;;;;;;;;;28.80;90.30;;;;;;4213236;28;19928;-73
2022/10/30 10:34:26;;;;;;;;;;;28.80;90.10;;;;;;4213400;28;20014;-73
2022/10/30 10:36:39;;;;;;;;;;;28.80;90.20;;;;;;4214205;28;19963;-74
2022/10/30 10:38:47;;;;;;;;;;;28.70;90.30;;;;;;4213660;28;19974;-73
2022/10/30 10:40:53;;;;;;;;;;;28.60;90.40;;;;;;4213502;28;19960;-73
2022/10/30 10:43:14;;;;;;;;;;;28.50;90.70;;;;;;4212476;28;20394;-74
2022/10/30 10:45:21;;;;;;;;;;;28.50;90.90;;;;;;4210652;28;19977;-74
2022/10/30 10:47:52;;;;;;;;;;;28.50;90.90;;;;;;4211433;28;19951;-74
2022/10/30 10:50:06;;;;;;;;;;;28.40;91.20;;;;;;4212401;28;19924;-74
2022/10/30 10:52:12;;;;;;;;;;;28.30;91.30;;;;;;4214384;28;19928;-73
2022/10/30 10:54:21;;;;;;;;;;;28.30;91.20;;;;;;4212343;28;20009;-73
2022/10/30 10:56:33;;;;;;;;;;;28.20;91.40;;;;;;4213753;28;19924;-72
2022/10/30 10:58:45;;;;;;;;;;;28.20;91.50;;;;;;4195979;28;19977;-73
2022/10/30 11:00:50;;;;;;;;;;;28.20;91.40;;;;;;4213603;28;19971;-72
2022/10/30 11:03:03;;;;;;;;;;;28.10;91.60;;;;;;4212930;28;19927;-71
2022/10/30 11:05:23;;;;;;;;;;;28.10;91.70;;;;;;4212472;28;19928;-73
2022/10/30 11:07:47;;;;;;;;;;;28.10;91.70;;;;;;4212918;28;19928;-71
2022/10/30 11:09:55;;;;;;;;;;;28.10;91.80;;;;;;4212848;28;19928;-71
2022/10/30 11:11:59;;;;;;;;;;;28.00;91.80;;;;;;4210560;28;19928;-71
2022/10/30 11:14:22;;;;;;;;;;;28.00;91.90;;;;;;4212925;28;19966;-72
2022/10/30 11:16:47;;;;;;;;;;;28.00;92.00;;;;;;4212945;28;19977;-72
2022/10/30 11:18:53;;;;;;;;;;;28.00;92.10;;;;;;4212998;28;19981;-72
2022/10/30 11:21:08;;;;;;;;;;;27.90;92.20;;;;;;4209960;28;19963;-71
2022/10/30 11:23:26;;;;;;;;;;;27.90;92.30;;;;;;4212709;28;20018;-72
2022/10/30 11:25:34;;;;;;;;;;;27.80;92.40;;;;;;4211543;28;19924;-72
2022/10/30 11:27:42;;;;;;;;;;;27.80;92.70;;;;;;4211048;28;20263;-72
2022/10/30 11:29:51;;;;;;;;;;;27.80;92.70;;;;;;4212716;28;19928;-71
2022/10/30 11:32:02;;;;;;;;;;;27.70;92.80;;;;;;4213402;28;19977;-71
2022/10/30 11:34:18;;;;;;;;;;;27.70;93.00;;;;;;4211476;28;19977;-72
2022/10/30 11:36:24;;;;;;;;;;;27.70;93.10;;;;;;4213970;28;19928;-73
2022/10/30 11:38:28;;;;;;;;;;;27.70;93.00;;;;;;4213522;28;19924;-72
2022/10/30 11:40:33;;;;;;;;;;;27.70;93.20;;;;;;4212329;28;19928;-71
2022/10/30 11:42:41;;;;;;;;;;;27.60;93.30;;;;;;4212665;28;19928;-73
2022/10/30 11:44:49;;;;;;;;;;;27.60;93.50;;;;;;4211808;28;19939;-72
2022/10/30 11:46:53;;;;;;;;;;;27.50;93.50;;;;;;4244061;27;20403;-68
2022/10/30 11:48:58;;;;;;;;;;;27.50;93.80;;;;;;4210326;28;19977;-71
2022/10/30 11:51:03;;;;;;;;;;;27.50;93.90;;;;;;4240681;27;19928;-71
2022/10/30 11:53:12;;;;;;;;;;;27.50;94.00;;;;;;4204468;28;19928;-71
2022/10/30 11:55:16;;;;;;;;;;;27.40;94.00;;;;;;4224078;28;19989;-72
2022/10/30 11:57:22;;;;;;;;;;;27.30;94.20;;;;;;4211251;28;20452;-71
2022/10/30 11:59:26;;;;;;;;;;;27.30;94.20;;;;;;4231960;27;20602;-72
2022/10/30 12:01:32;;;;;;;;;;;27.30;94.30;;;;;;4189597;28;20379;-72
2022/10/30 12:04:11;;;;;;;;;;;27.30;94.30;;;;;;4178701;28;19937;-70
2022/10/30 12:06:18;;;;;;;;;;;27.30;94.20;;;;;;4189765;28;19924;-71
2022/10/30 12:08:22;;;;;;;;;;;27.30;94.20;;;;;;4185265;28;19929;-70
2022/10/30 12:10:30;;;;;;;;;;;27.20;94.30;;;;;;4186218;28;19924;-70
2022/10/30 12:12:40;;;;;;;;;;;27.30;94.30;;;;;;4194482;28;19931;-71
2022/10/30 12:14:49;;;;;;;;;;;27.20;94.40;;;;;;4171425;28;20023;-71
2022/10/30 12:16:56;;;;;;;;;;;27.30;94.30;;;;;;4187634;28;19947;-71
2022/10/30 12:19:02;;;;;;;;;;;27.20;94.40;;;;;;4191987;28;19975;-71
2022/10/30 12:21:07;;;;;;;;;;;27.20;94.40;;;;;;4193772;28;19928;-70
2022/10/30 12:23:23;;;;;;;;;;;27.10;94.40;;;;;;4194561;28;19925;-70
2022/10/30 12:25:30;;;;;;;;;;;27.10;94.30;;;;;;4195281;28;19929;-70
2022/10/30 12:27:35;;;;;;;;;;;27.10;94.50;;;;;;4160523;28;20343;-70
2022/10/30 12:29:53;;;;;;;;;;;27.10;94.60;;;;;;4175829;28;19928;-70
2022/10/30 12:32:13;;;;;;;;;;;27.00;94.60;;;;;;4196704;28;19924;-71
2022/10/30 12:34:31;;;;;;;;;;;27.00;94.70;;;;;;4210712;28;19992;-70
2022/10/30 12:36:37;;;;;;;;;;;27.10;95.20;;;;;;4211262;28;19932;-71